sensor_id;sensor_type;location;lat;lon;timestamp;P1;durP1;ratioP1;P2;durP2;ratioP2
54430;SDS011;40342;52.998;5.862;2022-10-16T00:01:03;11.23;;;1.80;;
54430;SDS011;40342;52.998;5.862;2022-10-16T00:03:37;6.97;;;1.52;;
54430;SDS011;40342;52.998;5.862;2022-10-16T00:06:04;4.03;;;1.33;;
54430;SDS011;40342;52.998;5.862;2022-10-16T00:08:30;10.82;;;1.60;;
54430;SDS011;40342;52.998;5.862;2022-10-16T00:11:00;4.93;;;1.40;;
54430;SDS011;40342;52.998;5.862;2022-10-16T00:13:37;6.82;;;1.52;;
54430;SDS011;40342;52.998;5.862;2022-10-16T00:16:04;10.48;;;1.88;;
54430;SDS011;40342;52.998;5.862;2022-10-16T00:18:30;5.55;;;1.10;;
54430;SDS011;40342;52.998;5.862;2022-10-16T00:21:01;4.88;;;1.70;;
54430;SDS011;40342;52.998;5.862;2022-10-16T00:23:28;5.85;;;1.70;;
54430;SDS011;40342;52.998;5.862;2022-10-16T00:25:54;8.07;;;1.70;;
54430;SDS011;40342;52.998;5.862;2022-10-16T00:28:21;4.68;;;1.17;;
54430;SDS011;40342;52.998;5.862;2022-10-16T00:30:46;4.57;;;1.42;;
54430;SDS011;40342;52.998;5.862;2022-10-16T00:33:12;8.73;;;1.55;;
54430;SDS011;40342;52.998;5.862;2022-10-16T00:35:38;4.22;;;1.45;;
54430;SDS011;40342;52.998;5.862;2022-10-16T00:38:03;9.05;;;1.80;;
54430;SDS011;40342;52.998;5.862;2022-10-16T00:40:29;4.88;;;1.52;;
54430;SDS011;40342;52.998;5.862;2022-10-16T00:42:54;8.48;;;1.77;;
54430;SDS011;40342;52.998;5.862;2022-10-16T00:45:20;6.00;;;1.40;;
54430;SDS011;40342;52.998;5.862;2022-10-16T00:47:45;7.70;;;1.98;;
54430;SDS011;40342;52.998;5.862;2022-10-16T00:50:18;4.72;;;1.42;;
54430;SDS011;40342;52.998;5.862;2022-10-16T00:52:47;4.55;;;1.40;;
54430;SDS011;40342;52.998;5.862;2022-10-16T00:55:14;5.22;;;1.25;;
54430;SDS011;40342;52.998;5.862;2022-10-16T00:57:41;4.40;;;1.30;;
54430;SDS011;40342;52.998;5.862;2022-10-16T01:00:11;7.35;;;1.27;;
54430;SDS011;40342;52.998;5.862;2022-10-16T01:02:40;5.25;;;1.45;;
54430;SDS011;40342;52.998;5.862;2022-10-16T01:05:06;5.70;;;1.60;;
54430;SDS011;40342;52.998;5.862;2022-10-16T01:10:40;3.17;;;1.00;;
54430;SDS011;40342;52.998;5.862;2022-10-16T01:13:21;3.00;;;1.13;;
54430;SDS011;40342;52.998;5.862;2022-10-16T01:16:16;7.03;;;1.50;;
54430;SDS011;40342;52.998;5.862;2022-10-16T01:19:14;3.53;;;1.13;;
54430;SDS011;40342;52.998;5.862;2022-10-16T01:21:44;7.50;;;1.50;;
54430;SDS011;40342;52.998;5.862;2022-10-16T01:24:32;5.72;;;1.42;;
54430;SDS011;40342;52.998;5.862;2022-10-16T01:27:21;6.88;;;1.58;;
54430;SDS011;40342;52.998;5.862;2022-10-16T01:32:35;6.43;;;1.75;;
54430;SDS011;40342;52.998;5.862;2022-10-16T01:35:11;5.95;;;2.10;;
54430;SDS011;40342;52.998;5.862;2022-10-16T01:37:48;4.45;;;1.50;;
54430;SDS011;40342;52.998;5.862;2022-10-16T01:40:24;4.95;;;1.50;;
54430;SDS011;40342;52.998;5.862;2022-10-16T01:42:56;4.13;;;1.30;;
54430;SDS011;40342;52.998;5.862;2022-10-16T01:45:29;6.47;;;2.03;;
54430;SDS011;40342;52.998;5.862;2022-10-16T01:47:57;5.75;;;1.42;;
54430;SDS011;40342;52.998;5.862;2022-10-16T01:50:25;4.82;;;1.85;;
54430;SDS011;40342;52.998;5.862;2022-10-16T01:52:52;4.50;;;1.40;;
54430;SDS011;40342;52.998;5.862;2022-10-16T01:55:26;5.20;;;1.80;;
54430;SDS011;40342;52.998;5.862;2022-10-16T01:57:55;3.35;;;1.50;;
54430;SDS011;40342;52.998;5.862;2022-10-16T02:00:25;4.85;;;1.77;;
54430;SDS011;40342;52.998;5.862;2022-10-16T02:02:53;5.43;;;1.45;;
54430;SDS011;40342;52.998;5.862;2022-10-16T02:07:54;6.07;;;2.10;;
54430;SDS011;40342;52.998;5.862;2022-10-16T02:10:20;5.53;;;1.60;;
54430;SDS011;40342;52.998;5.862;2022-10-16T02:12:48;4.40;;;1.52;;
54430;SDS011;40342;52.998;5.862;2022-10-16T02:15:41;5.78;;;1.60;;
54430;SDS011;40342;52.998;5.862;2022-10-16T02:18:07;4.10;;;1.45;;
54430;SDS011;40342;52.998;5.862;2022-10-16T02:20:36;5.45;;;1.58;;
54430;SDS011;40342;52.998;5.862;2022-10-16T02:23:07;3.72;;;1.40;;
54430;SDS011;40342;52.998;5.862;2022-10-16T02:25:42;4.50;;;1.40;;
54430;SDS011;40342;52.998;5.862;2022-10-16T02:28:17;4.22;;;1.73;;
54430;SDS011;40342;52.998;5.862;2022-10-16T02:30:51;5.55;;;1.60;;
54430;SDS011;40342;52.998;5.862;2022-10-16T02:33:23;2.75;;;1.35;;
54430;SDS011;40342;52.998;5.862;2022-10-16T02:35:51;4.68;;;1.60;;
54430;SDS011;40342;52.998;5.862;2022-10-16T02:38:18;4.82;;;1.40;;
54430;SDS011;40342;52.998;5.862;2022-10-16T02:40:46;4.78;;;1.52;;
54430;SDS011;40342;52.998;5.862;2022-10-16T02:43:11;4.70;;;1.60;;
54430;SDS011;40342;52.998;5.862;2022-10-16T02:45:38;5.47;;;1.40;;
54430;SDS011;40342;52.998;5.862;2022-10-16T02:48:03;4.85;;;1.42;;
54430;SDS011;40342;52.998;5.862;2022-10-16T02:50:29;6.97;;;1.77;;
54430;SDS011;40342;52.998;5.862;2022-10-16T02:52:55;3.80;;;1.50;;
54430;SDS011;40342;52.998;5.862;2022-10-16T02:55:20;3.60;;;1.40;;
54430;SDS011;40342;52.998;5.862;2022-10-16T02:57:46;2.78;;;1.30;;
54430;SDS011;40342;52.998;5.862;2022-10-16T03:00:13;3.85;;;1.50;;
54430;SDS011;40342;52.998;5.862;2022-10-16T03:02:40;7.30;;;1.50;;
54430;SDS011;40342;52.998;5.862;2022-10-16T03:05:06;6.80;;;1.38;;
54430;SDS011;40342;52.998;5.862;2022-10-16T03:07:32;2.88;;;1.35;;
54430;SDS011;40342;52.998;5.862;2022-10-16T03:09:58;4.68;;;1.52;;
54430;SDS011;40342;52.998;5.862;2022-10-16T03:12:25;3.47;;;1.23;;
54430;SDS011;40342;52.998;5.862;2022-10-16T03:14:51;6.07;;;1.40;;
54430;SDS011;40342;52.998;5.862;2022-10-16T03:17:17;5.65;;;1.60;;
54430;SDS011;40342;52.998;5.862;2022-10-16T03:19:43;4.07;;;1.40;;
54430;SDS011;40342;52.998;5.862;2022-10-16T03:22:09;2.22;;;0.90;;
54430;SDS011;40342;52.998;5.862;2022-10-16T03:24:34;3.25;;;1.00;;
54430;SDS011;40342;52.998;5.862;2022-10-16T03:27:00;4.43;;;1.30;;
54430;SDS011;40342;52.998;5.862;2022-10-16T03:29:25;5.50;;;1.23;;
54430;SDS011;40342;52.998;5.862;2022-10-16T03:31:52;9.43;;;1.25;;
54430;SDS011;40342;52.998;5.862;2022-10-16T03:34:18;3.88;;;1.27;;
54430;SDS011;40342;52.998;5.862;2022-10-16T03:36:43;3.70;;;1.25;;
54430;SDS011;40342;52.998;5.862;2022-10-16T03:39:09;2.47;;;1.00;;
54430;SDS011;40342;52.998;5.862;2022-10-16T03:41:34;3.35;;;1.20;;
54430;SDS011;40342;52.998;5.862;2022-10-16T03:44:00;3.35;;;1.25;;
54430;SDS011;40342;52.998;5.862;2022-10-16T03:46:25;2.72;;;1.15;;
54430;SDS011;40342;52.998;5.862;2022-10-16T03:48:51;3.42;;;1.23;;
54430;SDS011;40342;52.998;5.862;2022-10-16T03:51:17;2.17;;;1.30;;
54430;SDS011;40342;52.998;5.862;2022-10-16T03:53:42;3.33;;;1.20;;
54430;SDS011;40342;52.998;5.862;2022-10-16T03:56:08;2.88;;;1.20;;
54430;SDS011;40342;52.998;5.862;2022-10-16T03:58:33;3.80;;;1.38;;
54430;SDS011;40342;52.998;5.862;2022-10-16T04:00:59;3.88;;;1.25;;
54430;SDS011;40342;52.998;5.862;2022-10-16T04:03:24;1.92;;;0.90;;
54430;SDS011;40342;52.998;5.862;2022-10-16T04:05:50;1.70;;;1.00;;
54430;SDS011;40342;52.998;5.862;2022-10-16T04:08:16;3.85;;;1.25;;
54430;SDS011;40342;52.998;5.862;2022-10-16T04:10:44;4.22;;;1.13;;
54430;SDS011;40342;52.998;5.862;2022-10-16T04:13:10;3.30;;;1.10;;
54430;SDS011;40342;52.998;5.862;2022-10-16T04:15:36;5.35;;;1.10;;
54430;SDS011;40342;52.998;5.862;2022-10-16T04:18:02;3.55;;;1.17;;
54430;SDS011;40342;52.998;5.862;2022-10-16T04:20:29;4.32;;;1.20;;
54430;SDS011;40342;52.998;5.862;2022-10-16T04:22:55;5.15;;;1.30;;
54430;SDS011;40342;52.998;5.862;2022-10-16T04:25:20;3.05;;;1.08;;
54430;SDS011;40342;52.998;5.862;2022-10-16T04:27:46;5.07;;;1.35;;
54430;SDS011;40342;52.998;5.862;2022-10-16T04:30:12;5.78;;;1.42;;
54430;SDS011;40342;52.998;5.862;2022-10-16T04:32:38;4.35;;;1.20;;
54430;SDS011;40342;52.998;5.862;2022-10-16T04:35:03;4.53;;;1.33;;
54430;SDS011;40342;52.998;5.862;2022-10-16T04:37:29;3.88;;;1.20;;
54430;SDS011;40342;52.998;5.862;2022-10-16T04:39:55;4.53;;;1.55;;
54430;SDS011;40342;52.998;5.862;2022-10-16T04:42:20;4.05;;;1.08;;
54430;SDS011;40342;52.998;5.862;2022-10-16T04:44:46;4.50;;;1.30;;
54430;SDS011;40342;52.998;5.862;2022-10-16T04:47:12;5.22;;;1.42;;
54430;SDS011;40342;52.998;5.862;2022-10-16T04:49:38;4.18;;;1.45;;
54430;SDS011;40342;52.998;5.862;2022-10-16T04:52:04;5.93;;;1.20;;
54430;SDS011;40342;52.998;5.862;2022-10-16T04:54:29;6.63;;;1.42;;
54430;SDS011;40342;52.998;5.862;2022-10-16T04:56:55;3.17;;;1.23;;
54430;SDS011;40342;52.998;5.862;2022-10-16T04:59:21;4.63;;;1.50;;
54430;SDS011;40342;52.998;5.862;2022-10-16T05:01:47;5.93;;;1.50;;
54430;SDS011;40342;52.998;5.862;2022-10-16T05:04:13;5.82;;;1.83;;
54430;SDS011;40342;52.998;5.862;2022-10-16T05:06:39;5.55;;;1.50;;
54430;SDS011;40342;52.998;5.862;2022-10-16T05:09:06;6.10;;;1.85;;
54430;SDS011;40342;52.998;5.862;2022-10-16T05:11:32;5.57;;;1.38;;
54430;SDS011;40342;52.998;5.862;2022-10-16T05:13:57;5.68;;;1.65;;
54430;SDS011;40342;52.998;5.862;2022-10-16T05:16:23;5.80;;;2.05;;
54430;SDS011;40342;52.998;5.862;2022-10-16T05:18:48;4.93;;;1.77;;
54430;SDS011;40342;52.998;5.862;2022-10-16T05:21:15;4.13;;;1.38;;
54430;SDS011;40342;52.998;5.862;2022-10-16T05:23:41;4.43;;;1.52;;
54430;SDS011;40342;52.998;5.862;2022-10-16T05:26:07;3.63;;;1.70;;
54430;SDS011;40342;52.998;5.862;2022-10-16T05:28:33;5.60;;;1.70;;
54430;SDS011;40342;52.998;5.862;2022-10-16T05:30:58;8.38;;;1.92;;
54430;SDS011;40342;52.998;5.862;2022-10-16T05:33:25;10.93;;;1.98;;
54430;SDS011;40342;52.998;5.862;2022-10-16T05:35:50;7.70;;;2.22;;
54430;SDS011;40342;52.998;5.862;2022-10-16T05:38:17;6.65;;;1.98;;
54430;SDS011;40342;52.998;5.862;2022-10-16T05:40:42;5.68;;;1.90;;
54430;SDS011;40342;52.998;5.862;2022-10-16T05:43:08;4.93;;;1.70;;
54430;SDS011;40342;52.998;5.862;2022-10-16T05:45:34;5.10;;;1.80;;
54430;SDS011;40342;52.998;5.862;2022-10-16T05:48:00;4.22;;;1.60;;
54430;SDS011;40342;52.998;5.862;2022-10-16T05:50:26;5.50;;;1.83;;
54430;SDS011;40342;52.998;5.862;2022-10-16T05:52:52;5.57;;;1.65;;
54430;SDS011;40342;52.998;5.862;2022-10-16T05:55:17;6.47;;;1.85;;
54430;SDS011;40342;52.998;5.862;2022-10-16T05:57:43;5.75;;;1.90;;
54430;SDS011;40342;52.998;5.862;2022-10-16T06:00:09;7.10;;;1.70;;
54430;SDS011;40342;52.998;5.862;2022-10-16T06:02:35;7.75;;;2.05;;
54430;SDS011;40342;52.998;5.862;2022-10-16T06:05:00;6.80;;;1.73;;
54430;SDS011;40342;52.998;5.862;2022-10-16T06:07:26;6.43;;;1.77;;
54430;SDS011;40342;52.998;5.862;2022-10-16T06:09:52;8.90;;;1.70;;
54430;SDS011;40342;52.998;5.862;2022-10-16T06:12:18;6.78;;;1.95;;
54430;SDS011;40342;52.998;5.862;2022-10-16T06:14:44;6.10;;;1.75;;
54430;SDS011;40342;52.998;5.862;2022-10-16T06:17:11;6.80;;;1.90;;
54430;SDS011;40342;52.998;5.862;2022-10-16T06:19:38;9.25;;;1.95;;
54430;SDS011;40342;52.998;5.862;2022-10-16T06:22:04;11.77;;;2.13;;
54430;SDS011;40342;52.998;5.862;2022-10-16T06:24:29;4.80;;;1.85;;
54430;SDS011;40342;52.998;5.862;2022-10-16T06:26:55;8.00;;;1.90;;
54430;SDS011;40342;52.998;5.862;2022-10-16T06:29:20;5.45;;;1.40;;
54430;SDS011;40342;52.998;5.862;2022-10-16T06:31:46;5.03;;;1.77;;
54430;SDS011;40342;52.998;5.862;2022-10-16T06:34:11;6.35;;;1.95;;
54430;SDS011;40342;52.998;5.862;2022-10-16T06:36:38;6.28;;;2.15;;
54430;SDS011;40342;52.998;5.862;2022-10-16T06:39:04;8.05;;;1.83;;
54430;SDS011;40342;52.998;5.862;2022-10-16T06:41:32;6.30;;;1.80;;
54430;SDS011;40342;52.998;5.862;2022-10-16T06:43:58;7.25;;;2.00;;
54430;SDS011;40342;52.998;5.862;2022-10-16T06:46:24;6.75;;;1.73;;
54430;SDS011;40342;52.998;5.862;2022-10-16T06:48:50;6.57;;;1.67;;
54430;SDS011;40342;52.998;5.862;2022-10-16T06:51:18;4.90;;;1.33;;
54430;SDS011;40342;52.998;5.862;2022-10-16T06:53:48;6.75;;;1.73;;
54430;SDS011;40342;52.998;5.862;2022-10-16T06:56:22;6.50;;;1.77;;
54430;SDS011;40342;52.998;5.862;2022-10-16T06:58:50;3.85;;;1.67;;
54430;SDS011;40342;52.998;5.862;2022-10-16T07:01:16;4.75;;;1.63;;
54430;SDS011;40342;52.998;5.862;2022-10-16T07:03:44;6.60;;;1.58;;
54430;SDS011;40342;52.998;5.862;2022-10-16T07:06:12;5.43;;;1.83;;
54430;SDS011;40342;52.998;5.862;2022-10-16T07:08:40;4.78;;;1.90;;
54430;SDS011;40342;52.998;5.862;2022-10-16T07:11:07;5.03;;;1.48;;
54430;SDS011;40342;52.998;5.862;2022-10-16T07:13:39;7.57;;;2.08;;
54430;SDS011;40342;52.998;5.862;2022-10-16T07:16:15;5.65;;;1.67;;
54430;SDS011;40342;52.998;5.862;2022-10-16T07:18:45;7.97;;;1.55;;
54430;SDS011;40342;52.998;5.862;2022-10-16T07:21:20;6.60;;;1.60;;
54430;SDS011;40342;52.998;5.862;2022-10-16T07:23:50;3.35;;;1.60;;
54430;SDS011;40342;52.998;5.862;2022-10-16T07:26:17;6.40;;;1.80;;
54430;SDS011;40342;52.998;5.862;2022-10-16T07:28:43;8.13;;;2.05;;
54430;SDS011;40342;52.998;5.862;2022-10-16T07:31:10;5.85;;;1.95;;
54430;SDS011;40342;52.998;5.862;2022-10-16T07:33:37;3.58;;;1.30;;
54430;SDS011;40342;52.998;5.862;2022-10-16T07:36:03;6.95;;;2.13;;
54430;SDS011;40342;52.998;5.862;2022-10-16T07:38:29;6.22;;;1.50;;
54430;SDS011;40342;52.998;5.862;2022-10-16T07:40:55;7.35;;;1.73;;
54430;SDS011;40342;52.998;5.862;2022-10-16T07:43:25;8.45;;;1.65;;
54430;SDS011;40342;52.998;5.862;2022-10-16T07:45:52;6.80;;;1.70;;
54430;SDS011;40342;52.998;5.862;2022-10-16T07:48:18;8.60;;;1.85;;
54430;SDS011;40342;52.998;5.862;2022-10-16T07:50:44;6.78;;;1.50;;
54430;SDS011;40342;52.998;5.862;2022-10-16T07:53:10;4.68;;;1.67;;
54430;SDS011;40342;52.998;5.862;2022-10-16T07:55:36;5.40;;;1.52;;
54430;SDS011;40342;52.998;5.862;2022-10-16T07:58:02;9.18;;;2.00;;
54430;SDS011;40342;52.998;5.862;2022-10-16T08:00:27;5.82;;;1.33;;
54430;SDS011;40342;52.998;5.862;2022-10-16T08:02:53;5.28;;;1.58;;
54430;SDS011;40342;52.998;5.862;2022-10-16T08:05:19;6.38;;;1.70;;
54430;SDS011;40342;52.998;5.862;2022-10-16T08:07:48;3.65;;;1.58;;
54430;SDS011;40342;52.998;5.862;2022-10-16T08:10:18;3.50;;;1.42;;
54430;SDS011;40342;52.998;5.862;2022-10-16T08:12:45;6.22;;;2.45;;
54430;SDS011;40342;52.998;5.862;2022-10-16T08:15:10;5.43;;;1.63;;
54430;SDS011;40342;52.998;5.862;2022-10-16T08:17:36;7.30;;;2.10;;
54430;SDS011;40342;52.998;5.862;2022-10-16T08:20:02;7.88;;;1.70;;
54430;SDS011;40342;52.998;5.862;2022-10-16T08:22:28;7.55;;;2.03;;
54430;SDS011;40342;52.998;5.862;2022-10-16T08:24:54;6.80;;;2.00;;
54430;SDS011;40342;52.998;5.862;2022-10-16T08:27:19;6.72;;;1.95;;
54430;SDS011;40342;52.998;5.862;2022-10-16T08:29:45;6.90;;;1.52;;
54430;SDS011;40342;52.998;5.862;2022-10-16T08:32:11;6.05;;;1.55;;
54430;SDS011;40342;52.998;5.862;2022-10-16T08:34:36;7.40;;;1.95;;
54430;SDS011;40342;52.998;5.862;2022-10-16T08:37:02;8.50;;;1.92;;
54430;SDS011;40342;52.998;5.862;2022-10-16T08:39:28;6.65;;;1.70;;
54430;SDS011;40342;52.998;5.862;2022-10-16T08:42:04;9.15;;;2.03;;
54430;SDS011;40342;52.998;5.862;2022-10-16T08:47:47;8.40;;;2.20;;
54430;SDS011;40342;52.998;5.862;2022-10-16T08:50:23;7.32;;;1.90;;
54430;SDS011;40342;52.998;5.862;2022-10-16T08:52:50;8.15;;;2.30;;
54430;SDS011;40342;52.998;5.862;2022-10-16T08:55:20;11.55;;;2.13;;
54430;SDS011;40342;52.998;5.862;2022-10-16T08:57:57;7.30;;;2.47;;
54430;SDS011;40342;52.998;5.862;2022-10-16T09:00:23;10.63;;;2.22;;
54430;SDS011;40342;52.998;5.862;2022-10-16T09:06:10;10.38;;;2.50;;
54430;SDS011;40342;52.998;5.862;2022-10-16T09:17:24;11.27;;;2.58;;
54430;SDS011;40342;52.998;5.862;2022-10-16T09:22:48;9.73;;;2.10;;
54430;SDS011;40342;52.998;5.862;2022-10-16T09:25:21;11.85;;;2.03;;
54430;SDS011;40342;52.998;5.862;2022-10-16T09:27:48;8.95;;;2.33;;
54430;SDS011;40342;52.998;5.862;2022-10-16T09:30:17;12.00;;;2.38;;
54430;SDS011;40342;52.998;5.862;2022-10-16T09:32:44;8.70;;;2.22;;
54430;SDS011;40342;52.998;5.862;2022-10-16T09:35:14;13.90;;;1.88;;
54430;SDS011;40342;52.998;5.862;2022-10-16T09:37:42;9.35;;;2.28;;
54430;SDS011;40342;52.998;5.862;2022-10-16T09:40:23;11.95;;;3.03;;
54430;SDS011;40342;52.998;5.862;2022-10-16T09:42:52;10.57;;;1.83;;
54430;SDS011;40342;52.998;5.862;2022-10-16T09:45:26;9.48;;;2.85;;
54430;SDS011;40342;52.998;5.862;2022-10-16T09:47:52;11.88;;;2.35;;
54430;SDS011;40342;52.998;5.862;2022-10-16T09:50:25;10.10;;;2.15;;
54430;SDS011;40342;52.998;5.862;2022-10-16T09:53:05;10.20;;;2.45;;
54430;SDS011;40342;52.998;5.862;2022-10-16T09:58:00;9.70;;;2.20;;
54430;SDS011;40342;52.998;5.862;2022-10-16T10:00:26;11.63;;;2.40;;
54430;SDS011;40342;52.998;5.862;2022-10-16T10:02:52;12.60;;;2.78;;
54430;SDS011;40342;52.998;5.862;2022-10-16T10:05:26;10.05;;;2.38;;
54430;SDS011;40342;52.998;5.862;2022-10-16T10:07:57;13.60;;;2.40;;
54430;SDS011;40342;52.998;5.862;2022-10-16T10:10:28;10.30;;;2.65;;
54430;SDS011;40342;52.998;5.862;2022-10-16T10:12:56;13.55;;;2.35;;
54430;SDS011;40342;52.998;5.862;2022-10-16T10:15:22;13.75;;;2.90;;
54430;SDS011;40342;52.998;5.862;2022-10-16T10:22:59;10.30;;;2.58;;
54430;SDS011;40342;52.998;5.862;2022-10-16T10:25:32;15.35;;;2.95;;
54430;SDS011;40342;52.998;5.862;2022-10-16T10:36:27;9.43;;;2.35;;
54430;SDS011;40342;52.998;5.862;2022-10-16T10:39:04;13.40;;;2.58;;
54430;SDS011;40342;52.998;5.862;2022-10-16T10:53:00;17.15;;;3.03;;
54430;SDS011;40342;52.998;5.862;2022-10-16T10:55:52;15.13;;;3.03;;
54430;SDS011;40342;52.998;5.862;2022-10-16T11:01:22;14.35;;;2.90;;
54430;SDS011;40342;52.998;5.862;2022-10-16T11:06:46;17.80;;;2.78;;
54430;SDS011;40342;52.998;5.862;2022-10-16T11:11:59;16.17;;;3.53;;
54430;SDS011;40342;52.998;5.862;2022-10-16T11:15:20;12.55;;;2.58;;
54430;SDS011;40342;52.998;5.862;2022-10-16T11:17:46;14.05;;;2.95;;
54430;SDS011;40342;52.998;5.862;2022-10-16T11:20:20;13.32;;;2.88;;
54430;SDS011;40342;52.998;5.862;2022-10-16T11:22:53;17.23;;;3.42;;
54430;SDS011;40342;52.998;5.862;2022-10-16T11:25:29;17.30;;;3.00;;
54430;SDS011;40342;52.998;5.862;2022-10-16T11:28:04;17.10;;;3.40;;
54430;SDS011;40342;52.998;5.862;2022-10-16T11:33:44;14.40;;;2.92;;
54430;SDS011;40342;52.998;5.862;2022-10-16T11:36:25;13.85;;;3.22;;
54430;SDS011;40342;52.998;5.862;2022-10-16T11:49:47;13.48;;;3.13;;
54430;SDS011;40342;52.998;5.862;2022-10-16T11:55:27;16.45;;;3.20;;
54430;SDS011;40342;52.998;5.862;2022-10-16T12:06:34;17.95;;;2.78;;
54430;SDS011;40342;52.998;5.862;2022-10-16T12:09:02;11.80;;;2.78;;
54430;SDS011;40342;52.998;5.862;2022-10-16T12:14:04;15.82;;;3.45;;
54430;SDS011;40342;52.998;5.862;2022-10-16T12:16:30;14.93;;;3.33;;
54430;SDS011;40342;52.998;5.862;2022-10-16T12:19:12;18.25;;;3.22;;
54430;SDS011;40342;52.998;5.862;2022-10-16T12:21:40;19.20;;;3.30;;
54430;SDS011;40342;52.998;5.862;2022-10-16T12:24:06;15.05;;;2.70;;
54430;SDS011;40342;52.998;5.862;2022-10-16T12:26:45;18.77;;;3.22;;
54430;SDS011;40342;52.998;5.862;2022-10-16T12:31:48;13.88;;;2.72;;
54430;SDS011;40342;52.998;5.862;2022-10-16T12:34:21;13.98;;;3.20;;
54430;SDS011;40342;52.998;5.862;2022-10-16T12:37:25;11.48;;;3.15;;
54430;SDS011;40342;52.998;5.862;2022-10-16T12:39:50;17.55;;;3.15;;
54430;SDS011;40342;52.998;5.862;2022-10-16T12:42:39;15.32;;;3.67;;
54430;SDS011;40342;52.998;5.862;2022-10-16T12:45:22;19.27;;;2.80;;
54430;SDS011;40342;52.998;5.862;2022-10-16T12:47:52;15.63;;;3.13;;
54430;SDS011;40342;52.998;5.862;2022-10-16T12:50:26;14.15;;;3.00;;
54430;SDS011;40342;52.998;5.862;2022-10-16T12:53:03;13.45;;;2.70;;
54430;SDS011;40342;52.998;5.862;2022-10-16T12:55:43;10.38;;;2.65;;
54430;SDS011;40342;52.998;5.862;2022-10-16T12:58:24;12.77;;;2.90;;
54430;SDS011;40342;52.998;5.862;2022-10-16T13:01:12;15.60;;;4.50;;
54430;SDS011;40342;52.998;5.862;2022-10-16T13:17:20;17.67;;;3.38;;
54430;SDS011;40342;52.998;5.862;2022-10-16T13:20:18;11.70;;;2.58;;
54430;SDS011;40342;52.998;5.862;2022-10-16T13:23:13;13.45;;;2.92;;
54430;SDS011;40342;52.998;5.862;2022-10-16T13:28:28;14.48;;;3.42;;
54430;SDS011;40342;52.998;5.862;2022-10-16T13:30:57;14.13;;;3.03;;
54430;SDS011;40342;52.998;5.862;2022-10-16T13:33:32;13.13;;;2.90;;
54430;SDS011;40342;52.998;5.862;2022-10-16T13:36:00;13.63;;;3.20;;
54430;SDS011;40342;52.998;5.862;2022-10-16T13:38:26;11.48;;;2.95;;
54430;SDS011;40342;52.998;5.862;2022-10-16T13:40:55;18.73;;;3.55;;
54430;SDS011;40342;52.998;5.862;2022-10-16T13:43:35;14.60;;;2.58;;
54430;SDS011;40342;52.998;5.862;2022-10-16T13:46:15;15.52;;;3.08;;
54430;SDS011;40342;52.998;5.862;2022-10-16T13:48:42;15.25;;;3.22;;
54430;SDS011;40342;52.998;5.862;2022-10-16T13:51:16;14.55;;;3.25;;
54430;SDS011;40342;52.998;5.862;2022-10-16T13:53:43;12.85;;;3.50;;
54430;SDS011;40342;52.998;5.862;2022-10-16T13:56:17;10.82;;;2.92;;
54430;SDS011;40342;52.998;5.862;2022-10-16T13:58:45;13.07;;;3.10;;
54430;SDS011;40342;52.998;5.862;2022-10-16T14:01:19;11.13;;;2.50;;
54430;SDS011;40342;52.998;5.862;2022-10-16T14:03:50;14.35;;;2.78;;
54430;SDS011;40342;52.998;5.862;2022-10-16T14:06:20;13.07;;;2.67;;
54430;SDS011;40342;52.998;5.862;2022-10-16T14:08:55;14.50;;;3.25;;
54430;SDS011;40342;52.998;5.862;2022-10-16T14:11:27;17.20;;;2.90;;
54430;SDS011;40342;52.998;5.862;2022-10-16T14:13:53;14.55;;;3.33;;
54430;SDS011;40342;52.998;5.862;2022-10-16T14:16:21;12.40;;;2.33;;
54430;SDS011;40342;52.998;5.862;2022-10-16T14:18:56;15.35;;;2.80;;
54430;SDS011;40342;52.998;5.862;2022-10-16T14:21:27;14.23;;;2.85;;
54430;SDS011;40342;52.998;5.862;2022-10-16T14:23:54;14.77;;;2.85;;
54430;SDS011;40342;52.998;5.862;2022-10-16T14:26:22;13.07;;;3.00;;
54430;SDS011;40342;52.998;5.862;2022-10-16T14:29:01;13.15;;;2.90;;
54430;SDS011;40342;52.998;5.862;2022-10-16T14:31:34;12.10;;;2.92;;
54430;SDS011;40342;52.998;5.862;2022-10-16T14:34:02;10.60;;;2.83;;
54430;SDS011;40342;52.998;5.862;2022-10-16T14:36:28;13.00;;;3.05;;
54430;SDS011;40342;52.998;5.862;2022-10-16T14:41:29;13.63;;;2.72;;
54430;SDS011;40342;52.998;5.862;2022-10-16T14:44:06;12.32;;;2.50;;
54430;SDS011;40342;52.998;5.862;2022-10-16T14:46:36;10.20;;;2.53;;
54430;SDS011;40342;52.998;5.862;2022-10-16T14:51:35;9.13;;;2.28;;
54430;SDS011;40342;52.998;5.862;2022-10-16T14:54:02;10.60;;;2.30;;
54430;SDS011;40342;52.998;5.862;2022-10-16T15:01:49;10.45;;;2.65;;
54430;SDS011;40342;52.998;5.862;2022-10-16T15:04:15;11.38;;;2.35;;
54430;SDS011;40342;52.998;5.862;2022-10-16T15:06:41;9.68;;;2.20;;
54430;SDS011;40342;52.998;5.862;2022-10-16T15:09:07;11.55;;;2.72;;
54430;SDS011;40342;52.998;5.862;2022-10-16T15:11:33;12.32;;;2.97;;
54430;SDS011;40342;52.998;5.862;2022-10-16T15:13:59;13.18;;;2.83;;
54430;SDS011;40342;52.998;5.862;2022-10-16T15:16:24;9.68;;;2.42;;
54430;SDS011;40342;52.998;5.862;2022-10-16T15:18:50;10.40;;;2.42;;
54430;SDS011;40342;52.998;5.862;2022-10-16T15:21:28;14.77;;;2.28;;
54430;SDS011;40342;52.998;5.862;2022-10-16T15:23:55;12.95;;;2.58;;
54430;SDS011;40342;52.998;5.862;2022-10-16T15:26:24;8.90;;;2.13;;
54430;SDS011;40342;52.998;5.862;2022-10-16T15:28:52;15.85;;;2.85;;
54430;SDS011;40342;52.998;5.862;2022-10-16T15:31:17;9.55;;;1.98;;
54430;SDS011;40342;52.998;5.862;2022-10-16T15:33:43;10.75;;;2.47;;
54430;SDS011;40342;52.998;5.862;2022-10-16T15:36:12;15.50;;;2.50;;
54430;SDS011;40342;52.998;5.862;2022-10-16T15:38:38;12.75;;;3.20;;
54430;SDS011;40342;52.998;5.862;2022-10-16T15:41:03;14.00;;;2.95;;
54430;SDS011;40342;52.998;5.862;2022-10-16T15:43:29;9.13;;;2.58;;
54430;SDS011;40342;52.998;5.862;2022-10-16T15:45:59;12.20;;;2.38;;
54430;SDS011;40342;52.998;5.862;2022-10-16T15:48:26;13.75;;;2.92;;
54430;SDS011;40342;52.998;5.862;2022-10-16T15:50:53;13.27;;;2.67;;
54430;SDS011;40342;52.998;5.862;2022-10-16T15:53:18;9.00;;;2.45;;
54430;SDS011;40342;52.998;5.862;2022-10-16T15:55:44;14.68;;;2.70;;
54430;SDS011;40342;52.998;5.862;2022-10-16T15:58:09;12.57;;;2.92;;
54430;SDS011;40342;52.998;5.862;2022-10-16T16:00:35;8.13;;;2.17;;
54430;SDS011;40342;52.998;5.862;2022-10-16T16:03:01;10.52;;;2.35;;
54430;SDS011;40342;52.998;5.862;2022-10-16T16:05:26;12.23;;;2.92;;
54430;SDS011;40342;52.998;5.862;2022-10-16T16:07:52;12.73;;;2.92;;
54430;SDS011;40342;52.998;5.862;2022-10-16T16:10:18;12.65;;;1.92;;
54430;SDS011;40342;52.998;5.862;2022-10-16T16:12:46;10.50;;;2.75;;
54430;SDS011;40342;52.998;5.862;2022-10-16T16:15:16;15.45;;;2.67;;
54430;SDS011;40342;52.998;5.862;2022-10-16T16:17:43;14.50;;;2.95;;
54430;SDS011;40342;52.998;5.862;2022-10-16T16:20:09;15.65;;;2.97;;
54430;SDS011;40342;52.998;5.862;2022-10-16T16:22:35;10.18;;;2.47;;
54430;SDS011;40342;52.998;5.862;2022-10-16T16:25:01;12.65;;;2.58;;
54430;SDS011;40342;52.998;5.862;2022-10-16T16:27:26;8.88;;;2.45;;
54430;SDS011;40342;52.998;5.862;2022-10-16T16:29:54;17.23;;;2.63;;
54430;SDS011;40342;52.998;5.862;2022-10-16T16:32:20;12.77;;;3.33;;
54430;SDS011;40342;52.998;5.862;2022-10-16T16:34:46;16.50;;;3.38;;
54430;SDS011;40342;52.998;5.862;2022-10-16T16:37:11;13.73;;;2.60;;
54430;SDS011;40342;52.998;5.862;2022-10-16T16:39:37;12.07;;;2.63;;
54430;SDS011;40342;52.998;5.862;2022-10-16T16:42:02;16.02;;;3.03;;
54430;SDS011;40342;52.998;5.862;2022-10-16T16:44:30;12.63;;;2.70;;
54430;SDS011;40342;52.998;5.862;2022-10-16T16:46:56;18.42;;;2.90;;
54430;SDS011;40342;52.998;5.862;2022-10-16T16:49:21;14.15;;;2.53;;
54430;SDS011;40342;52.998;5.862;2022-10-16T16:51:47;16.10;;;2.78;;
54430;SDS011;40342;52.998;5.862;2022-10-16T16:54:12;10.43;;;2.90;;